sensor_id;sensor_type;location;lat;lon;timestamp;P1;durP1;ratioP1;P2;durP2;ratioP2
13805;SDS011;6974;53.606;9.872;2023-06-14T00:01:53;5.30;;;3.40;;
13805;SDS011;6974;53.606;9.872;2023-06-14T00:04:20;7.83;;;3.60;;
13805;SDS011;6974;53.606;9.872;2023-06-14T00:06:50;4.70;;;3.23;;
13805;SDS011;6974;53.606;9.872;2023-06-14T00:09:17;3.47;;;3.00;;
13805;SDS011;6974;53.606;9.872;2023-06-14T00:11:44;5.03;;;3.27;;
13805;SDS011;6974;53.606;9.872;2023-06-14T00:14:11;6.07;;;3.57;;
13805;SDS011;6974;53.606;9.872;2023-06-14T00:16:39;3.87;;;3.47;;
13805;SDS011;6974;53.606;9.872;2023-06-14T00:19:07;7.00;;;3.80;;
13805;SDS011;6974;53.606;9.872;2023-06-14T00:21:35;5.37;;;3.30;;
13805;SDS011;6974;53.606;9.872;2023-06-14T00:24:03;5.43;;;3.50;;
13805;SDS011;6974;53.606;9.872;2023-06-14T00:26:30;4.00;;;3.60;;
13805;SDS011;6974;53.606;9.872;2023-06-14T00:28:57;5.00;;;3.60;;
13805;SDS011;6974;53.606;9.872;2023-06-14T00:31:24;5.17;;;3.33;;
13805;SDS011;6974;53.606;9.872;2023-06-14T00:33:52;4.80;;;3.30;;
13805;SDS011;6974;53.606;9.872;2023-06-14T00:36:19;5.93;;;3.33;;
13805;SDS011;6974;53.606;9.872;2023-06-14T00:38:46;5.43;;;3.33;;
13805;SDS011;6974;53.606;9.872;2023-06-14T00:41:13;5.13;;;3.13;;
13805;SDS011;6974;53.606;9.872;2023-06-14T00:43:39;7.83;;;3.80;;
13805;SDS011;6974;53.606;9.872;2023-06-14T00:46:06;4.07;;;3.23;;
13805;SDS011;6974;53.606;9.872;2023-06-14T00:48:33;3.93;;;3.40;;
13805;SDS011;6974;53.606;9.872;2023-06-14T00:51:03;4.40;;;3.67;;
13805;SDS011;6974;53.606;9.872;2023-06-14T00:53:30;6.20;;;3.67;;
13805;SDS011;6974;53.606;9.872;2023-06-14T00:55:59;3.93;;;3.10;;
13805;SDS011;6974;53.606;9.872;2023-06-14T00:58:26;6.87;;;3.63;;
13805;SDS011;6974;53.606;9.872;2023-06-14T01:00:54;5.17;;;3.33;;
13805;SDS011;6974;53.606;9.872;2023-06-14T01:03:21;5.83;;;3.70;;
13805;SDS011;6974;53.606;9.872;2023-06-14T01:05:49;6.03;;;3.87;;
13805;SDS011;6974;53.606;9.872;2023-06-14T01:08:23;6.23;;;3.73;;
13805;SDS011;6974;53.606;9.872;2023-06-14T01:10:56;5.00;;;3.40;;
13805;SDS011;6974;53.606;9.872;2023-06-14T01:13:32;5.23;;;3.37;;
13805;SDS011;6974;53.606;9.872;2023-06-14T01:16:01;4.17;;;3.30;;
13805;SDS011;6974;53.606;9.872;2023-06-14T01:18:28;3.80;;;3.33;;
13805;SDS011;6974;53.606;9.872;2023-06-14T01:20:56;4.87;;;3.17;;
13805;SDS011;6974;53.606;9.872;2023-06-14T01:23:24;5.80;;;3.70;;
13805;SDS011;6974;53.606;9.872;2023-06-14T01:25:58;4.23;;;3.20;;
13805;SDS011;6974;53.606;9.872;2023-06-14T01:28:25;4.50;;;3.90;;
13805;SDS011;6974;53.606;9.872;2023-06-14T01:30:57;6.13;;;3.73;;
13805;SDS011;6974;53.606;9.872;2023-06-14T01:33:29;4.63;;;3.50;;
13805;SDS011;6974;53.606;9.872;2023-06-14T01:35:58;4.17;;;3.30;;
13805;SDS011;6974;53.606;9.872;2023-06-14T01:38:29;4.70;;;3.33;;
13805;SDS011;6974;53.606;9.872;2023-06-14T01:40:57;4.37;;;3.03;;
13805;SDS011;6974;53.606;9.872;2023-06-14T01:43:26;7.27;;;3.63;;
13805;SDS011;6974;53.606;9.872;2023-06-14T01:45:56;4.03;;;3.70;;
13805;SDS011;6974;53.606;9.872;2023-06-14T01:48:25;3.80;;;3.40;;
13805;SDS011;6974;53.606;9.872;2023-06-14T01:50:52;6.33;;;3.73;;
13805;SDS011;6974;53.606;9.872;2023-06-14T01:53:19;6.23;;;3.80;;
13805;SDS011;6974;53.606;9.872;2023-06-14T01:55:48;6.17;;;3.80;;
13805;SDS011;6974;53.606;9.872;2023-06-14T01:58:14;4.90;;;3.50;;
13805;SDS011;6974;53.606;9.872;2023-06-14T02:00:42;6.33;;;3.47;;
13805;SDS011;6974;53.606;9.872;2023-06-14T02:03:10;5.93;;;3.63;;
13805;SDS011;6974;53.606;9.872;2023-06-14T02:05:38;4.73;;;3.57;;
13805;SDS011;6974;53.606;9.872;2023-06-14T02:08:05;5.07;;;3.50;;
13805;SDS011;6974;53.606;9.872;2023-06-14T02:10:32;5.13;;;3.47;;
13805;SDS011;6974;53.606;9.872;2023-06-14T02:13:00;4.30;;;3.70;;
13805;SDS011;6974;53.606;9.872;2023-06-14T02:15:27;4.10;;;3.50;;
13805;SDS011;6974;53.606;9.872;2023-06-14T02:17:59;6.50;;;3.60;;
13805;SDS011;6974;53.606;9.872;2023-06-14T02:20:27;5.47;;;3.67;;
13805;SDS011;6974;53.606;9.872;2023-06-14T02:22:54;6.23;;;3.83;;
13805;SDS011;6974;53.606;9.872;2023-06-14T02:25:21;4.60;;;3.60;;
13805;SDS011;6974;53.606;9.872;2023-06-14T02:27:47;5.30;;;3.60;;
13805;SDS011;6974;53.606;9.872;2023-06-14T02:30:16;5.57;;;3.50;;
13805;SDS011;6974;53.606;9.872;2023-06-14T02:32:43;6.53;;;3.83;;
13805;SDS011;6974;53.606;9.872;2023-06-14T02:35:10;5.73;;;3.40;;
13805;SDS011;6974;53.606;9.872;2023-06-14T02:37:36;4.60;;;3.70;;
13805;SDS011;6974;53.606;9.872;2023-06-14T02:40:04;4.90;;;3.90;;
13805;SDS011;6974;53.606;9.872;2023-06-14T02:42:32;6.37;;;4.00;;
13805;SDS011;6974;53.606;9.872;2023-06-14T02:44:59;4.00;;;3.50;;
13805;SDS011;6974;53.606;9.872;2023-06-14T02:47:28;4.13;;;3.73;;
13805;SDS011;6974;53.606;9.872;2023-06-14T02:49:55;8.20;;;4.03;;
13805;SDS011;6974;53.606;9.872;2023-06-14T02:52:22;5.13;;;3.87;;
13805;SDS011;6974;53.606;9.872;2023-06-14T02:54:50;4.73;;;4.00;;
13805;SDS011;6974;53.606;9.872;2023-06-14T02:57:17;4.90;;;4.00;;
13805;SDS011;6974;53.606;9.872;2023-06-14T02:59:43;5.23;;;3.83;;
13805;SDS011;6974;53.606;9.872;2023-06-14T03:02:10;5.70;;;4.00;;
13805;SDS011;6974;53.606;9.872;2023-06-14T03:04:39;6.43;;;4.23;;
13805;SDS011;6974;53.606;9.872;2023-06-14T03:07:07;4.73;;;3.93;;
13805;SDS011;6974;53.606;9.872;2023-06-14T03:09:35;6.00;;;3.73;;
13805;SDS011;6974;53.606;9.872;2023-06-14T03:12:03;5.43;;;3.70;;
13805;SDS011;6974;53.606;9.872;2023-06-14T03:14:32;7.60;;;4.00;;
13805;SDS011;6974;53.606;9.872;2023-06-14T03:16:59;6.97;;;4.37;;
13805;SDS011;6974;53.606;9.872;2023-06-14T03:19:26;5.10;;;3.83;;
13805;SDS011;6974;53.606;9.872;2023-06-14T03:21:55;5.63;;;4.27;;
13805;SDS011;6974;53.606;9.872;2023-06-14T03:24:23;5.37;;;4.30;;
13805;SDS011;6974;53.606;9.872;2023-06-14T03:26:52;5.53;;;4.10;;
13805;SDS011;6974;53.606;9.872;2023-06-14T03:29:19;6.80;;;4.33;;
13805;SDS011;6974;53.606;9.872;2023-06-14T03:31:56;6.27;;;4.33;;
13805;SDS011;6974;53.606;9.872;2023-06-14T03:34:24;5.43;;;4.40;;
13805;SDS011;6974;53.606;9.872;2023-06-14T03:36:51;6.40;;;4.20;;
13805;SDS011;6974;53.606;9.872;2023-06-14T03:39:19;5.90;;;4.43;;
13805;SDS011;6974;53.606;9.872;2023-06-14T03:41:46;5.57;;;4.20;;
13805;SDS011;6974;53.606;9.872;2023-06-14T03:44:14;5.10;;;4.53;;
13805;SDS011;6974;53.606;9.872;2023-06-14T03:46:42;7.27;;;4.73;;
13805;SDS011;6974;53.606;9.872;2023-06-14T03:49:10;6.90;;;4.37;;
13805;SDS011;6974;53.606;9.872;2023-06-14T03:51:37;6.23;;;4.50;;
13805;SDS011;6974;53.606;9.872;2023-06-14T03:54:04;7.73;;;4.70;;
13805;SDS011;6974;53.606;9.872;2023-06-14T03:56:33;6.43;;;4.13;;
13805;SDS011;6974;53.606;9.872;2023-06-14T03:59:00;7.63;;;4.73;;
13805;SDS011;6974;53.606;9.872;2023-06-14T04:01:27;6.30;;;4.00;;
13805;SDS011;6974;53.606;9.872;2023-06-14T04:03:55;6.13;;;4.17;;
13805;SDS011;6974;53.606;9.872;2023-06-14T04:06:23;7.60;;;4.57;;
13805;SDS011;6974;53.606;9.872;2023-06-14T04:08:57;4.37;;;3.97;;
13805;SDS011;6974;53.606;9.872;2023-06-14T04:11:27;6.20;;;4.30;;
13805;SDS011;6974;53.606;9.872;2023-06-14T04:13:55;8.83;;;4.80;;
13805;SDS011;6974;53.606;9.872;2023-06-14T04:16:22;6.77;;;4.37;;
13805;SDS011;6974;53.606;9.872;2023-06-14T04:18:50;6.77;;;4.43;;
13805;SDS011;6974;53.606;9.872;2023-06-14T04:21:17;6.10;;;4.47;;
13805;SDS011;6974;53.606;9.872;2023-06-14T04:23:44;5.20;;;4.27;;
13805;SDS011;6974;53.606;9.872;2023-06-14T04:26:11;7.83;;;4.33;;
13805;SDS011;6974;53.606;9.872;2023-06-14T04:28:38;7.27;;;4.43;;
13805;SDS011;6974;53.606;9.872;2023-06-14T04:31:07;5.87;;;4.60;;
13805;SDS011;6974;53.606;9.872;2023-06-14T04:33:34;5.67;;;3.83;;
13805;SDS011;6974;53.606;9.872;2023-06-14T04:36:08;4.73;;;4.03;;
13805;SDS011;6974;53.606;9.872;2023-06-14T04:38:36;5.60;;;4.33;;
13805;SDS011;6974;53.606;9.872;2023-06-14T04:41:03;10.03;;;4.57;;
13805;SDS011;6974;53.606;9.872;2023-06-14T04:43:31;7.30;;;4.40;;
13805;SDS011;6974;53.606;9.872;2023-06-14T04:46:03;5.23;;;4.20;;
13805;SDS011;6974;53.606;9.872;2023-06-14T04:48:35;5.57;;;4.13;;
13805;SDS011;6974;53.606;9.872;2023-06-14T04:51:06;6.17;;;4.07;;
13805;SDS011;6974;53.606;9.872;2023-06-14T04:53:33;5.73;;;4.63;;
13805;SDS011;6974;53.606;9.872;2023-06-14T04:55:59;8.20;;;4.67;;
13805;SDS011;6974;53.606;9.872;2023-06-14T04:58:28;4.60;;;3.93;;
13805;SDS011;6974;53.606;9.872;2023-06-14T05:00:54;5.20;;;4.17;;
13805;SDS011;6974;53.606;9.872;2023-06-14T05:03:22;6.13;;;4.60;;
13805;SDS011;6974;53.606;9.872;2023-06-14T05:05:51;6.27;;;4.20;;
13805;SDS011;6974;53.606;9.872;2023-06-14T05:08:18;6.23;;;4.40;;
13805;SDS011;6974;53.606;9.872;2023-06-14T05:10:45;7.23;;;4.27;;
13805;SDS011;6974;53.606;9.872;2023-06-14T05:13:12;5.60;;;4.03;;
13805;SDS011;6974;53.606;9.872;2023-06-14T05:15:38;6.87;;;4.60;;
13805;SDS011;6974;53.606;9.872;2023-06-14T05:18:05;6.87;;;4.30;;
13805;SDS011;6974;53.606;9.872;2023-06-14T05:20:34;6.73;;;4.50;;
13805;SDS011;6974;53.606;9.872;2023-06-14T05:23:03;7.10;;;5.10;;
13805;SDS011;6974;53.606;9.872;2023-06-14T05:25:30;6.03;;;4.57;;
13805;SDS011;6974;53.606;9.872;2023-06-14T05:27:57;5.67;;;4.23;;
13805;SDS011;6974;53.606;9.872;2023-06-14T05:30:24;7.83;;;4.60;;
13805;SDS011;6974;53.606;9.872;2023-06-14T05:32:51;8.37;;;4.20;;
13805;SDS011;6974;53.606;9.872;2023-06-14T05:35:20;7.80;;;4.20;;
13805;SDS011;6974;53.606;9.872;2023-06-14T05:37:48;4.57;;;4.13;;
13805;SDS011;6974;53.606;9.872;2023-06-14T05:40:16;6.30;;;4.73;;
13805;SDS011;6974;53.606;9.872;2023-06-14T05:42:43;8.10;;;4.60;;
13805;SDS011;6974;53.606;9.872;2023-06-14T05:45:10;7.00;;;4.00;;
13805;SDS011;6974;53.606;9.872;2023-06-14T05:47:37;5.47;;;4.40;;
13805;SDS011;6974;53.606;9.872;2023-06-14T05:50:04;5.93;;;4.30;;
13805;SDS011;6974;53.606;9.872;2023-06-14T05:52:32;5.87;;;3.83;;
13805;SDS011;6974;53.606;9.872;2023-06-14T05:54:59;5.50;;;4.30;;
13805;SDS011;6974;53.606;9.872;2023-06-14T05:57:28;7.07;;;4.23;;
13805;SDS011;6974;53.606;9.872;2023-06-14T05:59:55;6.20;;;4.23;;
13805;SDS011;6974;53.606;9.872;2023-06-14T06:02:22;4.90;;;4.17;;
13805;SDS011;6974;53.606;9.872;2023-06-14T06:04:49;5.63;;;4.00;;
13805;SDS011;6974;53.606;9.872;2023-06-14T06:07:16;6.70;;;4.10;;
13805;SDS011;6974;53.606;9.872;2023-06-14T06:09:43;5.43;;;4.30;;
13805;SDS011;6974;53.606;9.872;2023-06-14T06:12:10;5.10;;;4.03;;
13805;SDS011;6974;53.606;9.872;2023-06-14T06:14:38;5.33;;;4.00;;
13805;SDS011;6974;53.606;9.872;2023-06-14T06:17:05;4.73;;;4.20;;
13805;SDS011;6974;53.606;9.872;2023-06-14T06:19:32;8.23;;;4.43;;
13805;SDS011;6974;53.606;9.872;2023-06-14T06:21:59;8.53;;;4.60;;
13805;SDS011;6974;53.606;9.872;2023-06-14T06:24:25;8.43;;;4.40;;
13805;SDS011;6974;53.606;9.872;2023-06-14T06:26:52;5.30;;;3.93;;
13805;SDS011;6974;53.606;9.872;2023-06-14T06:29:19;4.30;;;3.70;;
13805;SDS011;6974;53.606;9.872;2023-06-14T06:31:48;5.90;;;3.80;;
13805;SDS011;6974;53.606;9.872;2023-06-14T06:34:15;5.43;;;3.63;;
13805;SDS011;6974;53.606;9.872;2023-06-14T06:36:42;5.50;;;3.83;;
13805;SDS011;6974;53.606;9.872;2023-06-14T06:39:09;6.30;;;3.73;;
13805;SDS011;6974;53.606;9.872;2023-06-14T06:41:37;5.27;;;3.77;;
13805;SDS011;6974;53.606;9.872;2023-06-14T06:44:05;8.73;;;4.10;;
13805;SDS011;6974;53.606;9.872;2023-06-14T06:46:32;4.37;;;3.60;;
13805;SDS011;6974;53.606;9.872;2023-06-14T06:49:01;4.97;;;3.70;;
13805;SDS011;6974;53.606;9.872;2023-06-14T06:51:28;3.77;;;3.37;;
13805;SDS011;6974;53.606;9.872;2023-06-14T06:53:55;4.30;;;3.60;;
13805;SDS011;6974;53.606;9.872;2023-06-14T06:56:21;6.37;;;3.80;;
13805;SDS011;6974;53.606;9.872;2023-06-14T06:58:49;4.37;;;3.60;;
13805;SDS011;6974;53.606;9.872;2023-06-14T07:01:16;5.83;;;3.33;;
13805;SDS011;6974;53.606;9.872;2023-06-14T07:03:43;5.57;;;3.20;;
13805;SDS011;6974;53.606;9.872;2023-06-14T07:06:12;4.43;;;3.20;;
13805;SDS011;6974;53.606;9.872;2023-06-14T07:08:39;5.70;;;3.50;;
13805;SDS011;6974;53.606;9.872;2023-06-14T07:11:06;4.57;;;2.97;;
13805;SDS011;6974;53.606;9.872;2023-06-14T07:13:33;10.17;;;3.47;;
13805;SDS011;6974;53.606;9.872;2023-06-14T07:16:00;5.93;;;3.20;;
13805;SDS011;6974;53.606;9.872;2023-06-14T07:18:27;5.10;;;3.00;;
13805;SDS011;6974;53.606;9.872;2023-06-14T07:20:54;4.07;;;3.20;;
13805;SDS011;6974;53.606;9.872;2023-06-14T07:23:23;5.40;;;3.00;;
13805;SDS011;6974;53.606;9.872;2023-06-14T07:25:50;7.47;;;3.00;;
13805;SDS011;6974;53.606;9.872;2023-06-14T07:28:17;3.93;;;3.13;;
13805;SDS011;6974;53.606;9.872;2023-06-14T07:30:44;4.07;;;2.90;;
13805;SDS011;6974;53.606;9.872;2023-06-14T07:33:11;6.10;;;3.37;;
13805;SDS011;6974;53.606;9.872;2023-06-14T07:35:38;5.13;;;3.63;;
13805;SDS011;6974;53.606;9.872;2023-06-14T07:38:05;3.63;;;2.83;;
13805;SDS011;6974;53.606;9.872;2023-06-14T07:40:33;3.57;;;3.20;;
13805;SDS011;6974;53.606;9.872;2023-06-14T07:43:00;3.67;;;3.10;;
13805;SDS011;6974;53.606;9.872;2023-06-14T07:45:27;3.30;;;2.87;;
13805;SDS011;6974;53.606;9.872;2023-06-14T07:47:54;3.77;;;3.03;;
13805;SDS011;6974;53.606;9.872;2023-06-14T07:50:21;8.20;;;3.67;;
13805;SDS011;6974;53.606;9.872;2023-06-14T07:52:48;3.83;;;2.93;;
13805;SDS011;6974;53.606;9.872;2023-06-14T07:55:15;5.87;;;3.20;;
13805;SDS011;6974;53.606;9.872;2023-06-14T07:57:43;3.33;;;3.03;;
13805;SDS011;6974;53.606;9.872;2023-06-14T08:00:11;4.27;;;2.90;;
13805;SDS011;6974;53.606;9.872;2023-06-14T08:02:40;5.03;;;3.30;;
13805;SDS011;6974;53.606;9.872;2023-06-14T08:05:09;4.07;;;3.10;;
13805;SDS011;6974;53.606;9.872;2023-06-14T08:07:36;6.13;;;3.33;;
13805;SDS011;6974;53.606;9.872;2023-06-14T08:10:03;5.77;;;3.10;;
13805;SDS011;6974;53.606;9.872;2023-06-14T08:12:31;4.80;;;3.00;;
13805;SDS011;6974;53.606;9.872;2023-06-14T08:15:00;4.67;;;3.07;;
13805;SDS011;6974;53.606;9.872;2023-06-14T08:17:27;4.70;;;3.17;;
13805;SDS011;6974;53.606;9.872;2023-06-14T08:19:54;4.30;;;3.20;;
13805;SDS011;6974;53.606;9.872;2023-06-14T08:22:22;5.63;;;2.90;;
13805;SDS011;6974;53.606;9.872;2023-06-14T08:24:51;4.63;;;2.97;;
13805;SDS011;6974;53.606;9.872;2023-06-14T08:27:19;8.73;;;3.63;;
13805;SDS011;6974;53.606;9.872;2023-06-14T08:29:46;5.50;;;3.63;;
13805;SDS011;6974;53.606;9.872;2023-06-14T08:32:14;4.40;;;2.87;;
13805;SDS011;6974;53.606;9.872;2023-06-14T08:34:41;4.37;;;3.00;;
13805;SDS011;6974;53.606;9.872;2023-06-14T08:37:07;3.60;;;3.10;;
13805;SDS011;6974;53.606;9.872;2023-06-14T08:39:34;4.73;;;2.90;;
13805;SDS011;6974;53.606;9.872;2023-06-14T08:42:01;4.67;;;3.13;;
13805;SDS011;6974;53.606;9.872;2023-06-14T08:44:29;3.83;;;3.00;;
13805;SDS011;6974;53.606;9.872;2023-06-14T08:46:57;5.97;;;3.30;;
13805;SDS011;6974;53.606;9.872;2023-06-14T08:49:27;4.97;;;2.93;;
13805;SDS011;6974;53.606;9.872;2023-06-14T08:51:56;4.10;;;3.27;;
13805;SDS011;6974;53.606;9.872;2023-06-14T08:54:25;4.63;;;3.10;;
13805;SDS011;6974;53.606;9.872;2023-06-14T08:56:54;3.83;;;3.20;;
13805;SDS011;6974;53.606;9.872;2023-06-14T08:59:23;4.93;;;3.60;;
13805;SDS011;6974;53.606;9.872;2023-06-14T09:01:51;5.53;;;2.93;;
13805;SDS011;6974;53.606;9.872;2023-06-14T09:04:19;3.70;;;3.17;;
13805;SDS011;6974;53.606;9.872;2023-06-14T09:06:48;4.60;;;3.27;;
13805;SDS011;6974;53.606;9.872;2023-06-14T09:09:18;5.77;;;3.27;;
13805;SDS011;6974;53.606;9.872;2023-06-14T09:11:45;3.93;;;3.43;;
13805;SDS011;6974;53.606;9.872;2023-06-14T09:14:13;5.17;;;3.10;;
13805;SDS011;6974;53.606;9.872;2023-06-14T09:16:39;8.00;;;3.30;;
13805;SDS011;6974;53.606;9.872;2023-06-14T09:19:06;5.50;;;3.10;;
13805;SDS011;6974;53.606;9.872;2023-06-14T09:21:33;7.07;;;3.43;;
13805;SDS011;6974;53.606;9.872;2023-06-14T09:24:02;5.10;;;3.63;;
13805;SDS011;6974;53.606;9.872;2023-06-14T09:26:31;8.40;;;3.27;;
13805;SDS011;6974;53.606;9.872;2023-06-14T09:28:58;4.80;;;3.33;;
13805;SDS011;6974;53.606;9.872;2023-06-14T09:31:25;5.47;;;3.30;;
13805;SDS011;6974;53.606;9.872;2023-06-14T09:33:56;8.23;;;3.40;;
13805;SDS011;6974;53.606;9.872;2023-06-14T09:36:24;5.97;;;3.60;;
13805;SDS011;6974;53.606;9.872;2023-06-14T09:38:52;4.27;;;3.17;;
13805;SDS011;6974;53.606;9.872;2023-06-14T09:41:21;5.17;;;3.30;;
13805;SDS011;6974;53.606;9.872;2023-06-14T09:43:57;4.97;;;3.17;;
13805;SDS011;6974;53.606;9.872;2023-06-14T09:46:26;3.40;;;3.10;;
13805;SDS011;6974;53.606;9.872;2023-06-14T09:48:53;5.37;;;3.20;;
13805;SDS011;6974;53.606;9.872;2023-06-14T09:51:20;4.40;;;3.20;;
13805;SDS011;6974;53.606;9.872;2023-06-14T09:53:49;7.43;;;3.57;;
13805;SDS011;6974;53.606;9.872;2023-06-14T09:56:17;4.93;;;3.50;;
13805;SDS011;6974;53.606;9.872;2023-06-14T09:58:53;3.43;;;3.13;;
13805;SDS011;6974;53.606;9.872;2023-06-14T10:01:21;3.57;;;3.00;;
13805;SDS011;6974;53.606;9.872;2023-06-14T10:03:50;4.17;;;3.40;;
13805;SDS011;6974;53.606;9.872;2023-06-14T10:06:22;4.70;;;3.47;;
13805;SDS011;6974;53.606;9.872;2023-06-14T10:08:50;5.47;;;3.80;;
13805;SDS011;6974;53.606;9.872;2023-06-14T10:11:20;5.47;;;3.20;;
13805;SDS011;6974;53.606;9.872;2023-06-14T10:13:49;4.77;;;3.20;;
13805;SDS011;6974;53.606;9.872;2023-06-14T10:16:17;4.37;;;3.50;;
13805;SDS011;6974;53.606;9.872;2023-06-14T10:18:49;5.00;;;3.13;;
13805;SDS011;6974;53.606;9.872;2023-06-14T10:21:27;4.63;;;3.53;;
13805;SDS011;6974;53.606;9.872;2023-06-14T10:23:59;4.60;;;3.23;;
13805;SDS011;6974;53.606;9.872;2023-06-14T10:26:31;4.63;;;3.30;;
13805;SDS011;6974;53.606;9.872;2023-06-14T10:29:00;4.47;;;3.30;;
13805;SDS011;6974;53.606;9.872;2023-06-14T10:31:40;3.27;;;2.83;;
13805;SDS011;6974;53.606;9.872;2023-06-14T10:34:08;3.50;;;3.20;;
13805;SDS011;6974;53.606;9.872;2023-06-14T10:36:35;7.27;;;3.87;;
13805;SDS011;6974;53.606;9.872;2023-06-14T10:39:06;7.57;;;3.60;;
13805;SDS011;6974;53.606;9.872;2023-06-14T10:41:35;4.67;;;3.47;;
13805;SDS011;6974;53.606;9.872;2023-06-14T10:44:11;8.07;;;3.27;;
13805;SDS011;6974;53.606;9.872;2023-06-14T10:47:06;4.77;;;3.70;;
13805;SDS011;6974;53.606;9.872;2023-06-14T10:49:41;5.73;;;3.53;;
13805;SDS011;6974;53.606;9.872;2023-06-14T10:52:11;7.17;;;3.60;;
13805;SDS011;6974;53.606;9.872;2023-06-14T10:57:38;5.43;;;3.87;;
13805;SDS011;6974;53.606;9.872;2023-06-14T11:00:08;6.63;;;3.67;;
13805;SDS011;6974;53.606;9.872;2023-06-14T11:05:57;5.70;;;3.70;;
13805;SDS011;6974;53.606;9.872;2023-06-14T11:08:36;4.63;;;3.30;;
13805;SDS011;6974;53.606;9.872;2023-06-14T11:11:13;4.13;;;3.37;;
13805;SDS011;6974;53.606;9.872;2023-06-14T11:13:41;6.90;;;3.77;;
13805;SDS011;6974;53.606;9.872;2023-06-14T11:16:13;5.93;;;3.73;;
13805;SDS011;6974;53.606;9.872;2023-06-14T11:18:41;5.23;;;3.47;;
13805;SDS011;6974;53.606;9.872;2023-06-14T11:21:10;5.07;;;3.30;;
13805;SDS011;6974;53.606;9.872;2023-06-14T11:23:36;4.13;;;3.00;;
13805;SDS011;6974;53.606;9.872;2023-06-14T11:26:03;8.40;;;3.97;;
13805;SDS011;6974;53.606;9.872;2023-06-14T11:28:37;4.57;;;3.23;;
13805;SDS011;6974;53.606;9.872;2023-06-14T11:31:05;6.57;;;3.77;;
13805;SDS011;6974;53.606;9.872;2023-06-14T11:33:34;3.77;;;3.17;;
13805;SDS011;6974;53.606;9.872;2023-06-14T11:36:01;4.10;;;3.30;;
13805;SDS011;6974;53.606;9.872;2023-06-14T11:38:29;7.87;;;3.50;;
13805;SDS011;6974;53.606;9.872;2023-06-14T11:40:58;5.03;;;3.60;;
13805;SDS011;6974;53.606;9.872;2023-06-14T11:43:26;4.90;;;3.37;;
13805;SDS011;6974;53.606;9.872;2023-06-14T11:45:54;3.50;;;3.20;;
13805;SDS011;6974;53.606;9.872;2023-06-14T11:48:21;4.63;;;3.30;;
13805;SDS011;6974;53.606;9.872;2023-06-14T11:50:50;3.00;;;2.80;;
13805;SDS011;6974;53.606;9.872;2023-06-14T11:53:17;8.27;;;3.60;;
13805;SDS011;6974;53.606;9.872;2023-06-14T11:55:44;6.03;;;3.37;;
13805;SDS011;6974;53.606;9.872;2023-06-14T11:58:12;4.47;;;3.10;;
13805;SDS011;6974;53.606;9.872;2023-06-14T12:00:40;6.17;;;3.50;;
13805;SDS011;6974;53.606;9.872;2023-06-14T12:03:08;4.77;;;3.30;;
13805;SDS011;6974;53.606;9.872;2023-06-14T12:05:35;5.90;;;3.47;;
13805;SDS011;6974;53.606;9.872;2023-06-14T12:08:03;4.83;;;3.30;;
13805;SDS011;6974;53.606;9.872;2023-06-14T12:10:39;5.47;;;3.20;;
13805;SDS011;6974;53.606;9.872;2023-06-14T12:13:08;6.00;;;3.30;;
13805;SDS011;6974;53.606;9.872;2023-06-14T12:15:35;4.90;;;2.93;;
13805;SDS011;6974;53.606;9.872;2023-06-14T12:18:04;4.93;;;3.10;;
13805;SDS011;6974;53.606;9.872;2023-06-14T12:20:33;4.70;;;3.30;;
13805;SDS011;6974;53.606;9.872;2023-06-14T12:23:03;4.77;;;3.40;;
13805;SDS011;6974;53.606;9.872;2023-06-14T12:25:32;6.23;;;3.50;;
13805;SDS011;6974;53.606;9.872;2023-06-14T12:28:03;6.07;;;3.57;;
13805;SDS011;6974;53.606;9.872;2023-06-14T12:30:31;4.20;;;3.20;;
13805;SDS011;6974;53.606;9.872;2023-06-14T12:32:58;5.67;;;3.53;;
13805;SDS011;6974;53.606;9.872;2023-06-14T12:35:25;4.03;;;3.03;;
13805;SDS011;6974;53.606;9.872;2023-06-14T12:37:52;5.43;;;3.50;;
13805;SDS011;6974;53.606;9.872;2023-06-14T12:40:20;5.70;;;4.00;;
13805;SDS011;6974;53.606;9.872;2023-06-14T12:42:47;4.60;;;3.33;;
13805;SDS011;6974;53.606;9.872;2023-06-14T12:45:14;7.07;;;3.63;;
13805;SDS011;6974;53.606;9.872;2023-06-14T12:47:41;6.83;;;3.87;;
13805;SDS011;6974;53.606;9.872;2023-06-14T12:50:08;4.97;;;3.70;;
13805;SDS011;6974;53.606;9.872;2023-06-14T12:52:35;5.00;;;2.90;;
13805;SDS011;6974;53.606;9.872;2023-06-14T12:55:02;6.07;;;3.53;;
13805;SDS011;6974;53.606;9.872;2023-06-14T12:57:31;4.73;;;3.37;;
13805;SDS011;6974;53.606;9.872;2023-06-14T13:00:01;5.03;;;3.30;;
13805;SDS011;6974;53.606;9.872;2023-06-14T13:02:29;4.37;;;3.50;;
13805;SDS011;6974;53.606;9.872;2023-06-14T13:04:56;6.00;;;3.63;;
13805;SDS011;6974;53.606;9.872;2023-06-14T13:07:23;4.00;;;3.10;;
13805;SDS011;6974;53.606;9.872;2023-06-14T13:09:50;6.60;;;3.50;;
13805;SDS011;6974;53.606;9.872;2023-06-14T13:12:17;4.60;;;3.40;;
13805;SDS011;6974;53.606;9.872;2023-06-14T13:14:46;4.83;;;3.40;;
13805;SDS011;6974;53.606;9.872;2023-06-14T13:17:13;5.57;;;3.60;;
13805;SDS011;6974;53.606;9.872;2023-06-14T13:19:40;5.70;;;3.20;;
13805;SDS011;6974;53.606;9.872;2023-06-14T13:22:07;6.87;;;3.47;;
13805;SDS011;6974;53.606;9.872;2023-06-14T13:24:34;3.27;;;2.87;;
13805;SDS011;6974;53.606;9.872;2023-06-14T13:27:01;4.27;;;3.00;;
13805;SDS011;6974;53.606;9.872;2023-06-14T13:29:28;6.60;;;3.37;;
13805;SDS011;6974;53.606;9.872;2023-06-14T13:31:57;5.00;;;2.93;;
13805;SDS011;6974;53.606;9.872;2023-06-14T13:34:25;6.20;;;3.60;;
13805;SDS011;6974;53.606;9.872;2023-06-14T13:36:51;3.17;;;2.93;;
13805;SDS011;6974;53.606;9.872;2023-06-14T13:39:18;5.53;;;3.30;;
13805;SDS011;6974;53.606;9.872;2023-06-14T13:41:45;4.13;;;3.20;;
13805;SDS011;6974;53.606;9.872;2023-06-14T13:44:12;5.63;;;3.30;;
13805;SDS011;6974;53.606;9.872;2023-06-14T13:46:41;3.73;;;3.40;;
13805;SDS011;6974;53.606;9.872;2023-06-14T13:49:10;5.47;;;3.43;;
13805;SDS011;6974;53.606;9.872;2023-06-14T13:51:37;4.87;;;3.17;;
13805;SDS011;6974;53.606;9.872;2023-06-14T13:54:04;4.37;;;3.20;;
13805;SDS011;6974;53.606;9.872;2023-06-14T13:56:31;5.97;;;3.97;;
13805;SDS011;6974;53.606;9.872;2023-06-14T13:58:58;5.73;;;3.20;;
13805;SDS011;6974;53.606;9.872;2023-06-14T14:01:26;3.83;;;3.30;;
13805;SDS011;6974;53.606;9.872;2023-06-14T14:03:53;6.20;;;3.60;;
13805;SDS011;6974;53.606;9.872;2023-06-14T14:06:22;5.43;;;3.37;;
13805;SDS011;6974;53.606;9.872;2023-06-14T14:08:49;3.87;;;3.07;;
13805;SDS011;6974;53.606;9.872;2023-06-14T14:11:15;3.27;;;2.90;;
13805;SDS011;6974;53.606;9.872;2023-06-14T14:13:43;4.40;;;2.87;;
13805;SDS011;6974;53.606;9.872;2023-06-14T14:16:10;5.53;;;3.33;;
13805;SDS011;6974;53.606;9.872;2023-06-14T14:18:37;3.77;;;3.20;;
13805;SDS011;6974;53.606;9.872;2023-06-14T14:21:03;4.93;;;3.10;;
13805;SDS011;6974;53.606;9.872;2023-06-14T14:23:32;4.20;;;3.13;;
13805;SDS011;6974;53.606;9.872;2023-06-14T14:25:59;5.63;;;3.30;;
13805;SDS011;6974;53.606;9.872;2023-06-14T14:28:28;5.03;;;3.27;;
13805;SDS011;6974;53.606;9.872;2023-06-14T14:30:55;4.20;;;3.20;;
13805;SDS011;6974;53.606;9.872;2023-06-14T14:33:22;4.47;;;3.30;;
13805;SDS011;6974;53.606;9.872;2023-06-14T14:35:49;3.47;;;3.03;;
13805;SDS011;6974;53.606;9.872;2023-06-14T14:38:16;3.20;;;2.70;;
13805;SDS011;6974;53.606;9.872;2023-06-14T14:40:44;4.30;;;3.30;;
13805;SDS011;6974;53.606;9.872;2023-06-14T14:43:11;7.00;;;3.30;;
13805;SDS011;6974;53.606;9.872;2023-06-14T14:45:38;4.17;;;3.10;;
13805;SDS011;6974;53.606;9.872;2023-06-14T14:48:05;9.40;;;3.40;;
13805;SDS011;6974;53.606;9.872;2023-06-14T14:50:32;3.93;;;2.90;;
13805;SDS011;6974;53.606;9.872;2023-06-14T14:52:59;4.63;;;3.00;;
13805;SDS011;6974;53.606;9.872;2023-06-14T14:55:26;4.17;;;3.03;;
13805;SDS011;6974;53.606;9.872;2023-06-14T14:57:54;4.43;;;3.37;;
13805;SDS011;6974;53.606;9.872;2023-06-14T15:00:21;6.57;;;3.10;;
13805;SDS011;6974;53.606;9.872;2023-06-14T15:02:47;7.17;;;3.20;;
13805;SDS011;6974;53.606;9.872;2023-06-14T15:05:14;5.00;;;3.23;;
13805;SDS011;6974;53.606;9.872;2023-06-14T15:07:41;5.43;;;3.20;;
13805;SDS011;6974;53.606;9.872;2023-06-14T15:10:09;5.63;;;3.10;;
13805;SDS011;6974;53.606;9.872;2023-06-14T15:12:36;6.20;;;3.03;;